aviador You're here:

GMAD Decoded Metar

AL MASSIRA MC in MOROCCO
Report Time2018-06-24 20:00:00
UTC Time2018-06-24 20:20:23
Flight Rules vfr VFR
Wind210° at 06 kt
W.Decomp.*RWY 28: 2.3 kt HW 5.5 kt LCW
W.Rank210° ranks 11
Current wind is above 210° avg. (5.6)
Visibility9999 m
Phenomena:N/A
Clouds:Few 026 Hf
Expected CloudBase > 2,400 ft AGL from Temp-Dew spread
CeilingNone
Temp21°C (ISA +6)
Dew Point15°C (69% RH)
AAT20.5°C
QNH1016 hPa
Density Alt1,125 ft
Elevation243 ft
Report Wrong Elevation
Raw Report
GMAD 242000Z 21006KT 160V250 9999 FEW026 21/15 Q1016 NOSIG=

Extra information for GMAD:More info

Metar Taf Metar & Taf Last 4 Metars F.Rules Stats Wind Profile Meteogram Temp Stats Airport Information Weather charts Add Link Nearby VenuesMetar ALERT Operation Metar Decoded Social comments